Time;durP1;ratioP1;P1;durP2;ratioP2;P2;SDS_P1;SDS_P2;PMS_P1;PMS_P2;Temp;Humidity;BMP_temperature;BMP_pressure;BME280_temperature;BME280_humidity;BME280_pressure;Samples;Min_cycle;Max_cycle;Signal;HPM_P1;HPM_P2
2021/12/16 00:09:06;;;;;;;164.10;98.77;;;;;;;;;;4984837;28;21192;-79
2021/12/16 00:33:19;;;;;;;164.47;89.20;;;;;;;;;;4986977;28;20439;-78
2021/12/16 00:35:48;;;;;;;155.53;88.43;;;;;;;;;;4986179;28;20420;-78
2021/12/16 00:38:14;;;;;;;155.83;90.93;;;;;;;;;;4987288;28;20424;-79
2021/12/16 00:40:42;;;;;;;157.50;90.83;;;;;;;;;;4986510;28;20420;-78
2021/12/16 00:44:02;;;;;;;167.97;95.47;;;;;;;;;;4973226;28;20444;-79
2021/12/16 00:49:05;;;;;;;160.30;90.73;;;;;;;;;;4975056;28;20419;-79
2021/12/16 00:54:28;;;;;;;164.03;91.97;;;;;;;;;;4918121;28;20419;-78
2021/12/16 00:57:00;;;;;;;170.80;96.00;;;;;;;;;;4972631;28;20535;-78
2021/12/16 00:59:31;;;;;;;199.37;106.03;;;;;;;;;;4972874;28;20420;-78
2021/12/16 01:02:14;;;;;;;176.73;99.07;;;;;;;;;;4972735;28;20428;-78
2021/12/16 01:35:25;;;;;;;181.93;104.43;;;;;;;;;;4982978;28;20406;-79
2021/12/16 01:51:38;;;;;;;193.37;108.40;;;;;;;;;;4986744;28;20496;-78
2021/12/16 01:57:09;;;;;;;177.33;102.00;;;;;;;;;;4987180;28;20412;-78
2021/12/16 01:59:38;;;;;;;180.57;103.17;;;;;;;;;;4980916;28;20460;-78
2021/12/16 02:02:27;;;;;;;194.07;108.27;;;;;;;;;;4981942;28;20432;-79
2021/12/16 02:10:13;;;;;;;198.37;110.83;;;;;;;;;;4986289;28;21395;-78
2021/12/16 02:34:28;;;;;;;199.87;112.00;;;;;;;;;;4988184;28;20415;-80
2021/12/16 02:36:54;;;;;;;268.80;134.60;;;;;;;;;;4971483;28;20443;-80
2021/12/16 02:39:26;;;;;;;296.03;143.00;;;;;;;;;;4985202;28;20514;-80
2021/12/16 02:41:55;;;;;;;280.53;136.83;;;;;;;;;;4984550;28;20432;-79
2021/12/16 02:44:35;;;;;;;232.37;126.47;;;;;;;;;;4971071;28;20976;-79
2021/12/16 02:49:51;;;;;;;241.10;123.10;;;;;;;;;;4989686;28;20424;-80
2021/12/16 02:52:19;;;;;;;243.73;127.70;;;;;;;;;;4985061;28;20819;-80
2021/12/16 02:54:47;;;;;;;204.83;114.60;;;;;;;;;;4984680;28;20433;-79
2021/12/16 02:57:14;;;;;;;194.53;108.60;;;;;;;;;;4985556;28;21135;-79
2021/12/16 02:59:41;;;;;;;210.50;116.37;;;;;;;;;;4984960;28;20420;-79
2021/12/16 03:02:11;;;;;;;194.57;110.37;;;;;;;;;;5002288;28;20478;-79
2021/12/16 03:04:39;;;;;;;185.23;106.53;;;;;;;;;;4998407;28;20840;-79
2021/12/16 03:07:09;;;;;;;195.83;113.10;;;;;;;;;;4983650;28;20455;-79
2021/12/16 03:14:55;;;;;;;193.07;111.87;;;;;;;;;;4985463;28;20440;-80
2021/12/16 03:17:32;;;;;;;197.53;114.27;;;;;;;;;;4983161;28;21270;-80
2021/12/16 03:20:09;;;;;;;261.77;136.60;;;;;;;;;;4985042;28;20841;-80
2021/12/16 03:22:53;;;;;;;233.40;125.87;;;;;;;;;;4981695;28;20956;-80
2021/12/16 03:25:30;;;;;;;205.90;119.23;;;;;;;;;;4982769;28;20647;-79
2021/12/16 03:33:29;;;;;;;206.40;122.33;;;;;;;;;;4983779;28;20428;-79
2021/12/16 03:38:58;;;;;;;230.00;129.73;;;;;;;;;;4951423;28;20425;-78
2021/12/16 03:41:25;;;;;;;239.07;129.57;;;;;;;;;;4977656;28;21014;-79
2021/12/16 03:43:52;;;;;;;195.37;115.90;;;;;;;;;;4981987;28;20819;-79
2021/12/16 03:46:27;;;;;;;247.20;129.00;;;;;;;;;;4982336;28;21410;-80
2021/12/16 03:48:56;;;;;;;181.37;111.40;;;;;;;;;;4982775;28;20579;-80
2021/12/16 03:51:41;;;;;;;194.30;112.77;;;;;;;;;;4985772;28;21022;-80
2021/12/16 03:54:13;;;;;;;187.30;109.77;;;;;;;;;;4984682;28;20431;-81
2021/12/16 03:56:41;;;;;;;181.43;109.93;;;;;;;;;;4968325;28;20424;-80
2021/12/16 03:59:08;;;;;;;171.17;102.30;;;;;;;;;;4972697;28;20839;-80
2021/12/16 04:01:35;;;;;;;194.17;108.17;;;;;;;;;;4985670;28;20444;-79
2021/12/16 04:04:01;;;;;;;174.20;100.27;;;;;;;;;;4987299;28;20488;-79
2021/12/16 04:06:29;;;;;;;188.50;107.17;;;;;;;;;;4967993;28;20448;-80
2021/12/16 04:08:57;;;;;;;182.63;104.77;;;;;;;;;;4986117;28;20416;-80
2021/12/16 04:11:26;;;;;;;191.17;108.10;;;;;;;;;;4975021;28;20424;-81
2021/12/16 04:13:56;;;;;;;191.40;105.80;;;;;;;;;;4968217;28;20520;-79
2021/12/16 04:16:36;;;;;;;203.87;115.10;;;;;;;;;;4982417;28;20424;-80
2021/12/16 04:19:07;;;;;;;185.10;108.93;;;;;;;;;;4982537;28;20427;-81
2021/12/16 04:21:34;;;;;;;183.83;104.97;;;;;;;;;;4987444;28;21132;-80
2021/12/16 04:24:01;;;;;;;184.33;106.07;;;;;;;;;;4997723;28;20818;-80
2021/12/16 04:26:28;;;;;;;177.90;103.87;;;;;;;;;;4983290;28;20445;-80
2021/12/16 04:28:55;;;;;;;178.33;104.30;;;;;;;;;;4965126;28;20423;-80
2021/12/16 04:31:23;;;;;;;177.20;103.00;;;;;;;;;;4979811;28;20520;-80
2021/12/16 04:33:50;;;;;;;177.47;102.27;;;;;;;;;;4966319;28;20424;-80
2021/12/16 04:36:17;;;;;;;175.87;100.10;;;;;;;;;;4970360;28;20428;-80
2021/12/16 04:38:44;;;;;;;225.53;117.87;;;;;;;;;;4989888;28;20498;-80
2021/12/16 04:41:12;;;;;;;234.57;118.27;;;;;;;;;;4987960;28;20424;-79
2021/12/16 04:43:40;;;;;;;169.03;99.03;;;;;;;;;;4974727;28;21151;-81
2021/12/16 04:46:07;;;;;;;196.07;106.63;;;;;;;;;;4977024;28;20451;-82
2021/12/16 04:48:37;;;;;;;205.80;111.77;;;;;;;;;;4991290;28;20450;-81
2021/12/16 04:51:04;;;;;;;205.53;113.17;;;;;;;;;;4989368;28;21160;-80
2021/12/16 04:53:31;;;;;;;244.93;127.83;;;;;;;;;;4974794;28;20515;-81
2021/12/16 04:55:58;;;;;;;203.70;113.67;;;;;;;;;;4991513;28;21042;-81
2021/12/16 04:58:25;;;;;;;220.40;120.07;;;;;;;;;;4987671;28;20566;-80
2021/12/16 05:00:52;;;;;;;184.53;107.07;;;;;;;;;;4971776;28;20786;-80
2021/12/16 05:03:22;;;;;;;229.70;122.67;;;;;;;;;;4982066;28;20487;-80
2021/12/16 05:05:49;;;;;;;217.30;118.93;;;;;;;;;;4975600;28;20444;-80
2021/12/16 05:08:15;;;;;;;210.13;115.03;;;;;;;;;;4986151;28;20417;-80
2021/12/16 05:10:42;;;;;;;224.83;119.63;;;;;;;;;;4973052;28;20663;-80
2021/12/16 05:13:09;;;;;;;207.47;113.43;;;;;;;;;;4982979;28;20420;-80
2021/12/16 05:15:38;;;;;;;228.83;123.13;;;;;;;;;;4988312;28;20430;-80
2021/12/16 05:18:10;;;;;;;205.13;112.77;;;;;;;;;;4979318;28;20433;-80
2021/12/16 05:20:39;;;;;;;236.60;124.33;;;;;;;;;;4986736;28;20435;-80
2021/12/16 05:26:36;;;;;;;184.47;107.77;;;;;;;;;;4987449;28;20993;-80
2021/12/16 05:28:38;;;;;;;227.70;118.83;;;;;;;;;;4973419;28;20446;-80
2021/12/16 05:31:05;;;;;;;183.13;105.60;;;;;;;;;;4992871;28;20427;-80
2021/12/16 05:33:31;;;;;;;168.87;97.47;;;;;;;;;;4989610;28;20416;-80
2021/12/16 05:35:58;;;;;;;184.23;100.33;;;;;;;;;;4983466;28;20420;-79
2021/12/16 05:38:27;;;;;;;174.07;99.80;;;;;;;;;;4964016;28;20467;-79
2021/12/16 05:40:54;;;;;;;184.80;103.80;;;;;;;;;;4974562;28;20421;-80
2021/12/16 05:43:23;;;;;;;169.97;95.47;;;;;;;;;;4964584;28;20994;-80
2021/12/16 05:45:50;;;;;;;167.43;95.97;;;;;;;;;;4979803;28;20448;-79
2021/12/16 05:48:18;;;;;;;164.83;93.70;;;;;;;;;;4982164;28;21082;-79
2021/12/16 05:50:47;;;;;;;205.30;104.17;;;;;;;;;;4972901;28;20459;-79
2021/12/16 05:53:17;;;;;;;181.47;97.10;;;;;;;;;;4981514;28;20433;-81
2021/12/16 05:55:43;;;;;;;157.33;89.60;;;;;;;;;;4982116;28;20428;-80
2021/12/16 05:58:15;;;;;;;199.67;102.33;;;;;;;;;;4986672;28;20432;-80
2021/12/16 06:00:42;;;;;;;219.33;109.17;;;;;;;;;;4982120;28;20440;-80
2021/12/16 06:03:08;;;;;;;164.87;91.67;;;;;;;;;;4963115;28;20468;-80
2021/12/16 06:05:35;;;;;;;204.80;106.60;;;;;;;;;;4986412;28;20459;-79
2021/12/16 06:08:01;;;;;;;210.13;106.90;;;;;;;;;;4982246;28;20428;-81
2021/12/16 06:13:13;;;;;;;177.10;94.80;;;;;;;;;;4987933;28;20400;-80
2021/12/16 06:22:28;;;;;;;168.80;91.73;;;;;;;;;;4987057;28;20423;-80
2021/12/16 06:26:41;;;;;;;177.03;92.87;;;;;;;;;;4986460;28;21257;-80
2021/12/16 06:29:07;;;;;;;174.50;94.33;;;;;;;;;;4984590;28;20527;-81
2021/12/16 06:31:40;;;;;;;196.90;99.43;;;;;;;;;;4983158;28;20495;-80
2021/12/16 06:34:06;;;;;;;144.80;79.73;;;;;;;;;;4971116;28;20427;-80
2021/12/16 06:36:33;;;;;;;158.87;87.17;;;;;;;;;;4972020;28;20428;-80
2021/12/16 06:38:59;;;;;;;165.50;89.03;;;;;;;;;;4982820;28;20841;-79
2021/12/16 06:41:28;;;;;;;149.60;83.37;;;;;;;;;;4967057;28;20599;-79
2021/12/16 06:43:56;;;;;;;160.73;86.33;;;;;;;;;;4982601;28;20428;-80
2021/12/16 06:46:31;;;;;;;158.33;87.07;;;;;;;;;;4966601;28;20449;-80
2021/12/16 06:48:59;;;;;;;210.00;104.80;;;;;;;;;;4984684;28;20431;-80
2021/12/16 06:51:47;;;;;;;172.10;93.70;;;;;;;;;;4987858;28;20544;-80
2021/12/16 06:54:22;;;;;;;174.10;89.73;;;;;;;;;;4975687;28;20490;-81
2021/12/16 06:57:54;;;;;;;173.70;88.17;;;;;;;;;;4982923;28;20430;-80
2021/12/16 07:00:08;;;;;;;195.67;94.30;;;;;;;;;;4971386;28;21170;-79
2021/12/16 07:02:58;;;;;;;174.07;92.23;;;;;;;;;;4970461;28;21234;-79
2021/12/16 07:05:27;;;;;;;176.33;91.43;;;;;;;;;;4981677;28;20428;-79
2021/12/16 07:07:54;;;;;;;184.33;94.93;;;;;;;;;;4978887;28;20423;-78
2021/12/16 07:10:21;;;;;;;177.40;91.63;;;;;;;;;;4982091;28;20415;-78
2021/12/16 07:12:49;;;;;;;181.63;94.40;;;;;;;;;;4996588;28;20421;-78
2021/12/16 07:15:19;;;;;;;179.63;93.80;;;;;;;;;;4980388;28;21384;-78
2021/12/16 07:17:46;;;;;;;172.67;93.83;;;;;;;;;;4981894;28;21013;-78
2021/12/16 07:20:14;;;;;;;187.87;98.17;;;;;;;;;;4966798;28;20536;-78
2021/12/16 07:22:41;;;;;;;231.50;111.77;;;;;;;;;;4982488;28;20609;-78
2021/12/16 07:25:08;;;;;;;198.00;101.47;;;;;;;;;;4984693;28;21282;-79
2021/12/16 07:27:36;;;;;;;224.90;109.30;;;;;;;;;;4980372;28;20444;-79
2021/12/16 07:30:10;;;;;;;194.50;101.00;;;;;;;;;;4970641;28;20555;-79
2021/12/16 07:32:37;;;;;;;180.43;95.80;;;;;;;;;;4962884;28;20467;-79
2021/12/16 07:35:05;;;;;;;207.40;107.53;;;;;;;;;;4979587;28;20433;-78
2021/12/16 07:37:32;;;;;;;211.37;106.00;;;;;;;;;;4982182;28;20433;-79
2021/12/16 07:40:05;;;;;;;177.10;98.90;;;;;;;;;;4980532;28;20432;-78
2021/12/16 07:42:43;;;;;;;187.33;101.17;;;;;;;;;;4981639;28;20427;-79
2021/12/16 07:45:09;;;;;;;183.80;98.37;;;;;;;;;;4970374;28;20423;-79
2021/12/16 07:47:36;;;;;;;189.60;101.30;;;;;;;;;;4969694;28;20555;-79
2021/12/16 07:50:03;;;;;;;167.20;93.83;;;;;;;;;;4967273;28;20436;-78
2021/12/16 07:52:29;;;;;;;180.63;101.27;;;;;;;;;;4975287;28;20424;-79
2021/12/16 07:54:56;;;;;;;181.63;99.17;;;;;;;;;;4961740;28;21314;-79
2021/12/16 07:57:22;;;;;;;172.90;95.47;;;;;;;;;;4966724;28;20485;-79
2021/12/16 07:59:49;;;;;;;192.77;99.80;;;;;;;;;;4980866;28;20576;-79
2021/12/16 08:02:16;;;;;;;191.87;100.60;;;;;;;;;;4983645;28;20421;-79
2021/12/16 08:04:44;;;;;;;171.77;92.60;;;;;;;;;;4964746;28;20429;-78
2021/12/16 08:07:14;;;;;;;170.13;91.47;;;;;;;;;;4961329;28;20556;-79
2021/12/16 08:09:41;;;;;;;156.03;88.60;;;;;;;;;;4979761;28;20536;-79
2021/12/16 08:12:09;;;;;;;145.57;80.67;;;;;;;;;;4977628;28;20908;-78
2021/12/16 08:14:39;;;;;;;135.20;79.13;;;;;;;;;;4978709;28;20534;-78
2021/12/16 08:17:05;;;;;;;142.67;78.17;;;;;;;;;;4965344;28;20491;-78
2021/12/16 08:19:32;;;;;;;145.17;82.23;;;;;;;;;;4982794;28;20436;-78
2021/12/16 08:21:58;;;;;;;139.27;80.40;;;;;;;;;;4966609;28;20682;-78
2021/12/16 08:24:25;;;;;;;143.83;79.90;;;;;;;;;;4964483;28;20535;-78
2021/12/16 08:26:53;;;;;;;142.27;79.13;;;;;;;;;;4978494;28;20785;-78
2021/12/16 08:29:20;;;;;;;151.33;82.90;;;;;;;;;;4978756;28;20484;-78
2021/12/16 08:31:47;;;;;;;130.93;76.07;;;;;;;;;;4980273;28;20417;-79
2021/12/16 08:34:17;;;;;;;134.23;74.97;;;;;;;;;;4981604;28;20420;-80
2021/12/16 08:36:44;;;;;;;122.10;69.87;;;;;;;;;;4983043;28;20429;-80
2021/12/16 08:39:13;;;;;;;122.93;70.73;;;;;;;;;;4986919;28;21187;-81
2021/12/16 08:41:43;;;;;;;127.40;72.33;;;;;;;;;;4974162;28;20432;-81
2021/12/16 08:44:11;;;;;;;125.40;72.83;;;;;;;;;;4970005;28;20564;-81
2021/12/16 08:46:42;;;;;;;117.37;68.70;;;;;;;;;;4965964;28;20448;-82
2021/12/16 08:49:09;;;;;;;107.50;62.90;;;;;;;;;;5003967;28;20411;-81
2021/12/16 08:51:38;;;;;;;105.43;61.23;;;;;;;;;;4971374;28;20428;-81
2021/12/16 08:54:05;;;;;;;107.73;62.60;;;;;;;;;;4971490;28;20523;-81
2021/12/16 08:56:31;;;;;;;101.87;61.30;;;;;;;;;;4985944;28;20627;-82
2021/12/16 08:59:00;;;;;;;107.87;62.50;;;;;;;;;;4983218;28;20432;-80
2021/12/16 09:01:28;;;;;;;106.33;60.17;;;;;;;;;;4986969;28;20496;-81
2021/12/16 09:03:56;;;;;;;95.23;57.07;;;;;;;;;;4997363;28;21256;-80
2021/12/16 09:06:23;;;;;;;110.73;62.97;;;;;;;;;;4986839;28;20987;-81
2021/12/16 09:08:50;;;;;;;111.07;65.00;;;;;;;;;;4987419;28;20423;-81
2021/12/16 09:11:21;;;;;;;110.17;63.20;;;;;;;;;;4985237;28;21214;-81
2021/12/16 09:13:48;;;;;;;118.17;67.30;;;;;;;;;;4988608;28;20462;-80
2021/12/16 09:16:17;;;;;;;115.30;66.13;;;;;;;;;;4966680;28;20429;-80
2021/12/16 09:18:46;;;;;;;111.10;65.67;;;;;;;;;;4975998;28;20424;-81
2021/12/16 09:21:21;;;;;;;120.20;67.97;;;;;;;;;;4988225;28;20433;-81
2021/12/16 09:23:48;;;;;;;113.50;67.37;;;;;;;;;;4984608;28;21331;-81
2021/12/16 09:26:15;;;;;;;118.40;66.07;;;;;;;;;;4986087;28;21025;-82
2021/12/16 09:28:42;;;;;;;112.83;68.33;;;;;;;;;;4974661;28;21108;-82
2021/12/16 09:31:25;;;;;;;112.87;68.13;;;;;;;;;;4972823;28;20431;-82
2021/12/16 09:33:56;;;;;;;113.33;65.90;;;;;;;;;;4986406;28;20424;-82
2021/12/16 09:36:25;;;;;;;111.77;66.77;;;;;;;;;;4990344;28;20405;-81
2021/12/16 09:39:21;;;;;;;106.53;62.50;;;;;;;;;;4974656;28;20425;-81
2021/12/16 09:42:09;;;;;;;103.90;62.23;;;;;;;;;;4965182;28;20476;-81
2021/12/16 09:44:42;;;;;;;101.37;61.17;;;;;;;;;;4990168;28;20435;-81
2021/12/16 09:47:12;;;;;;;105.17;63.97;;;;;;;;;;4986980;28;20461;-81
2021/12/16 09:49:46;;;;;;;104.50;63.93;;;;;;;;;;5001304;28;20432;-81
2021/12/16 09:52:29;;;;;;;109.87;64.57;;;;;;;;;;4975330;28;20424;-82
2021/12/16 09:55:04;;;;;;;106.73;64.83;;;;;;;;;;4990973;28;20416;-81
2021/12/16 09:57:33;;;;;;;111.07;64.73;;;;;;;;;;4983672;28;20470;-82
2021/12/16 10:00:14;;;;;;;106.30;62.67;;;;;;;;;;4987686;28;20482;-81
2021/12/16 10:02:46;;;;;;;105.70;63.23;;;;;;;;;;5002580;28;20427;-81
2021/12/16 10:08:30;;;;;;;104.80;63.53;;;;;;;;;;4955049;28;20472;-81
2021/12/16 10:11:02;;;;;;;97.83;60.60;;;;;;;;;;4972755;28;20904;-81
2021/12/16 10:19:03;;;;;;;113.57;68.03;;;;;;;;;;4987365;28;20460;-81
2021/12/16 10:21:32;;;;;;;117.10;73.17;;;;;;;;;;4967593;28;20428;-81
2021/12/16 10:23:58;;;;;;;128.93;81.27;;;;;;;;;;4969110;28;20443;-82
2021/12/16 10:26:34;;;;;;;133.73;80.73;;;;;;;;;;4986824;28;20539;-81
2021/12/16 10:29:02;;;;;;;128.17;77.97;;;;;;;;;;4985835;28;20482;-81
2021/12/16 10:31:31;;;;;;;136.60;81.57;;;;;;;;;;4968381;28;20431;-81
2021/12/16 10:34:14;;;;;;;127.83;79.73;;;;;;;;;;4987326;28;20437;-81
2021/12/16 10:36:45;;;;;;;126.10;79.70;;;;;;;;;;4948197;28;21186;-82
2021/12/16 10:39:22;;;;;;;123.77;78.10;;;;;;;;;;4974241;28;20439;-81
2021/12/16 10:42:04;;;;;;;130.73;83.80;;;;;;;;;;4986058;28;20444;-82
2021/12/16 10:44:33;;;;;;;136.10;85.90;;;;;;;;;;4983106;28;20482;-81
2021/12/16 10:47:05;;;;;;;137.17;85.43;;;;;;;;;;5000654;28;20479;-82
2021/12/16 10:49:36;;;;;;;131.13;82.83;;;;;;;;;;4985814;28;20439;-81
2021/12/16 10:52:06;;;;;;;132.47;82.90;;;;;;;;;;4986906;28;20520;-81
2021/12/16 10:54:38;;;;;;;137.87;86.77;;;;;;;;;;4985209;28;20527;-82
2021/12/16 10:57:12;;;;;;;138.57;87.10;;;;;;;;;;4983540;28;20501;-82
2021/12/16 10:59:44;;;;;;;139.37;90.83;;;;;;;;;;4990038;28;20505;-82
2021/12/16 11:02:36;;;;;;;144.17;92.33;;;;;;;;;;4974257;28;20425;-82
2021/12/16 11:05:11;;;;;;;137.30;88.10;;;;;;;;;;4997045;28;21373;-82
2021/12/16 11:07:42;;;;;;;135.37;86.03;;;;;;;;;;4986473;28;20542;-82
2021/12/16 11:10:15;;;;;;;138.57;86.63;;;;;;;;;;4966657;28;20946;-82
2021/12/16 11:12:49;;;;;;;138.50;84.27;;;;;;;;;;4970581;28;21480;-82
2021/12/16 11:15:27;;;;;;;144.50;91.07;;;;;;;;;;4985881;28;20509;-81
2021/12/16 11:18:13;;;;;;;145.33;92.30;;;;;;;;;;4972769;28;20466;-80
2021/12/16 11:20:42;;;;;;;153.40;97.27;;;;;;;;;;4967844;28;20420;-81
2021/12/16 11:23:20;;;;;;;152.50;97.10;;;;;;;;;;4986340;28;20412;-81
2021/12/16 11:25:51;;;;;;;145.50;93.83;;;;;;;;;;4987709;28;20554;-81
2021/12/16 11:28:22;;;;;;;154.87;97.10;;;;;;;;;;4984043;28;20783;-82
2021/12/16 11:30:56;;;;;;;145.33;95.27;;;;;;;;;;4987427;28;20437;-81
2021/12/16 11:33:43;;;;;;;138.57;91.20;;;;;;;;;;4987097;28;20530;-81
2021/12/16 11:36:17;;;;;;;145.30;96.37;;;;;;;;;;4968521;28;20432;-81
2021/12/16 11:38:59;;;;;;;148.97;94.07;;;;;;;;;;4984520;28;21048;-81
2021/12/16 11:41:57;;;;;;;;;;;;;;;;;;;;;
2021/12/16 11:54:20;;;;;;;162.43;103.23;;;;;;;;;;4925368;28;20908;-83
2021/12/16 12:00:46;;;;;;;141.43;93.00;;;;;;;;;;4933864;28;21221;-83
2021/12/16 12:21:58;;;;;;;;;;;;;;;;;;;;;
2021/12/16 12:24:32;;;;;;;148.33;95.60;;;;;;;;;;4838084;29;20442;-83
2021/12/16 12:30:09;;;;;;;149.63;94.40;;;;;;;;;;4767602;29;20557;-83
2021/12/16 12:33:02;;;;;;;;;;;;;;;;;;;;;
2021/12/16 12:35:52;;;;;;;154.07;96.20;;;;;;;;;;4741534;30;20443;-83
2021/12/16 12:45:19;;;;;;;133.90;89.70;;;;;;;;;;4820196;29;20473;-84
2021/12/16 12:48:37;;;;;;;132.13;87.37;;;;;;;;;;4959553;28;20541;-83
2021/12/16 12:51:22;;;;;;;138.63;90.87;;;;;;;;;;4911087;29;20840;-83
2021/12/16 12:57:22;;;;;;;130.13;87.30;;;;;;;;;;4966927;28;20432;-84
2021/12/16 13:03:11;;;;;;;130.53;86.83;;;;;;;;;;4946441;28;20427;-84
2021/12/16 13:05:41;;;;;;;139.33;88.20;;;;;;;;;;4985392;28;20405;-84
2021/12/16 13:08:22;;;;;;;;;;;;;;;;;;;;;
2021/12/16 13:10:59;;;;;;;125.07;85.20;;;;;;;;;;4982173;28;20412;-84
2021/12/16 13:13:44;;;;;;;133.33;90.57;;;;;;;;;;4972041;28;20435;-83
2021/12/16 13:26:22;;;;;;;135.13;89.47;;;;;;;;;;4987310;28;20477;-84
2021/12/16 13:29:28;;;;;;;144.40;90.03;;;;;;;;;;4955226;28;20424;-83
2021/12/16 13:34:41;;;;;;;142.67;90.10;;;;;;;;;;4987144;28;20534;-84
2021/12/16 13:37:22;;;;;;;152.20;92.73;;;;;;;;;;4987424;28;20446;-84
2021/12/16 13:40:01;;;;;;;142.93;91.20;;;;;;;;;;4987379;28;20440;-84
2021/12/16 13:42:42;;;;;;;151.13;97.50;;;;;;;;;;4967466;28;20439;-83
2021/12/16 13:45:37;;;;;;;142.77;91.83;;;;;;;;;;4969604;28;20447;-83
2021/12/16 13:48:44;;;;;;;146.70;91.77;;;;;;;;;;4988834;28;20809;-83
2021/12/16 14:05:18;;;;;;;147.20;92.10;;;;;;;;;;4988927;28;20784;-84
2021/12/16 14:07:57;;;;;;;140.57;90.03;;;;;;;;;;5002523;28;20455;-83
2021/12/16 14:10:51;;;;;;;138.50;89.07;;;;;;;;;;4987472;28;20523;-84
2021/12/16 14:16:36;;;;;;;144.63;89.43;;;;;;;;;;4988235;28;20426;-83
2021/12/16 14:34:03;;;;;;;141.07;89.10;;;;;;;;;;4987009;28;20412;-83
2021/12/16 14:38:37;;;;;;;140.57;89.73;;;;;;;;;;4982757;28;20943;-84
2021/12/16 14:44:17;;;;;;;146.50;91.57;;;;;;;;;;4985506;28;21045;-84
2021/12/16 14:46:59;;;;;;;143.33;95.77;;;;;;;;;;4973998;28;20587;-84
2021/12/16 14:49:29;;;;;;;143.07;94.30;;;;;;;;;;4970299;28;20482;-82
2021/12/16 14:51:58;;;;;;;143.97;94.83;;;;;;;;;;4984821;28;20413;-83
2021/12/16 14:54:26;;;;;;;153.70;99.30;;;;;;;;;;4967902;28;20421;-84
2021/12/16 14:56:58;;;;;;;151.57;97.50;;;;;;;;;;4969133;28;20425;-83
2021/12/16 14:59:26;;;;;;;142.60;91.97;;;;;;;;;;4984317;28;20427;-83
2021/12/16 15:02:10;;;;;;;142.60;92.37;;;;;;;;;;4980533;28;20431;-83
2021/12/16 15:04:36;;;;;;;148.07;97.97;;;;;;;;;;4985907;28;20991;-83
2021/12/16 15:07:07;;;;;;;141.80;92.37;;;;;;;;;;4982009;28;20542;-82
2021/12/16 15:09:37;;;;;;;141.33;93.50;;;;;;;;;;4970345;28;20424;-83
2021/12/16 15:12:15;;;;;;;147.30;95.07;;;;;;;;;;4967671;28;20433;-83
2021/12/16 15:15:17;;;;;;;143.97;96.87;;;;;;;;;;4968373;28;20422;-82
2021/12/16 15:32:15;;;;;;;160.63;101.23;;;;;;;;;;4987300;28;20448;-82
2021/12/16 15:40:15;;;;;;;159.90;101.07;;;;;;;;;;4986377;28;21004;-83
2021/12/16 15:45:17;;;;;;;158.73;97.20;;;;;;;;;;4982908;28;20417;-83
2021/12/16 15:48:04;;;;;;;158.33;101.17;;;;;;;;;;4966720;28;20451;-82
2021/12/16 15:50:50;;;;;;;158.23;101.47;;;;;;;;;;4987645;28;20432;-81
2021/12/16 15:53:21;;;;;;;164.83;103.17;;;;;;;;;;4990837;28;20877;-81
2021/12/16 15:55:55;;;;;;;163.70;104.67;;;;;;;;;;4982977;28;20416;-81
2021/12/16 15:58:30;;;;;;;159.93;101.90;;;;;;;;;;4987746;28;20499;-82
2021/12/16 16:00:59;;;;;;;167.87;105.30;;;;;;;;;;4983349;28;20443;-82
2021/12/16 16:03:26;;;;;;;167.77;107.43;;;;;;;;;;4982960;28;20448;-81
2021/12/16 16:05:57;;;;;;;169.27;105.27;;;;;;;;;;4985750;28;20590;-80
2021/12/16 16:08:40;;;;;;;167.47;106.20;;;;;;;;;;4967706;28;20467;-81
2021/12/16 16:20:47;;;;;;;178.00;108.43;;;;;;;;;;4946194;28;20191;-82
2021/12/16 16:23:37;;;;;;;;;;;;;;;;;;;;;
2021/12/16 16:29:40;;;;;;;182.83;112.97;;;;;;;;;;4930983;28;21783;-81
2021/12/16 16:32:15;;;;;;;182.37;112.43;;;;;;;;;;4926282;28;20567;-81
2021/12/16 16:35:03;;;;;;;171.83;106.97;;;;;;;;;;4933308;28;21284;-81
2021/12/16 16:37:57;;;;;;;;;;;;;;;;;;;;;
2021/12/16 16:40:45;;;;;;;174.13;107.93;;;;;;;;;;4987633;28;20424;-81
2021/12/16 16:43:24;;;;;;;181.63;112.00;;;;;;;;;;4983061;28;20527;-81
2021/12/16 16:45:55;;;;;;;183.17;114.63;;;;;;;;;;4984344;28;20805;-81
2021/12/16 16:48:43;;;;;;;187.93;114.27;;;;;;;;;;4987654;28;20498;-81
2021/12/16 16:51:16;;;;;;;192.47;116.80;;;;;;;;;;4970284;28;20428;-80
2021/12/16 16:53:50;;;;;;;189.07;116.10;;;;;;;;;;4971920;28;20425;-80
2021/12/16 16:56:21;;;;;;;181.53;113.93;;;;;;;;;;4987857;28;21006;-81
2021/12/16 16:58:48;;;;;;;199.87;120.57;;;;;;;;;;4984174;28;20428;-80
2021/12/16 17:01:17;;;;;;;194.33;116.57;;;;;;;;;;4999562;28;20459;-80
2021/12/16 17:03:45;;;;;;;189.60;115.33;;;;;;;;;;4971553;28;20428;-81
2021/12/16 17:06:12;;;;;;;187.83;116.17;;;;;;;;;;4975066;28;20467;-82
2021/12/16 17:08:43;;;;;;;197.03;119.93;;;;;;;;;;4987165;28;20424;-81
2021/12/16 17:11:13;;;;;;;200.13;120.33;;;;;;;;;;4989345;28;21091;-82
2021/12/16 17:13:58;;;;;;;207.90;122.20;;;;;;;;;;4970113;28;20483;-81
2021/12/16 17:19:10;;;;;;;226.83;127.33;;;;;;;;;;4984795;28;20416;-81
2021/12/16 17:21:38;;;;;;;203.57;122.43;;;;;;;;;;4983952;28;20437;-81
2021/12/16 17:24:53;;;;;;;198.03;117.53;;;;;;;;;;4999572;28;20734;-81
2021/12/16 17:27:55;;;;;;;;;;;;;;;;;;;;;
2021/12/16 17:30:44;;;;;;;199.67;116.90;;;;;;;;;;4948922;28;20438;-81
2021/12/16 17:36:33;;;;;;;210.00;121.20;;;;;;;;;;4947130;28;20659;-80
2021/12/16 17:39:15;;;;;;;225.60;126.10;;;;;;;;;;4971227;28;20416;-80
2021/12/16 17:42:15;;;;;;;;;;;;;;;;;;;;;
2021/12/16 17:45:15;;;;;;;;;;;;;;;;;;;;;
2021/12/16 18:09:18;;;;;;;225.60;130.87;;;;;;;;;;4989392;28;20970;-83
2021/12/16 18:15:11;;;;;;;213.83;126.10;;;;;;;;;;4987188;28;20399;-83
2021/12/16 18:21:08;;;;;;;210.40;124.77;;;;;;;;;;4947955;28;21339;-83
2021/12/16 18:24:29;;;;;;;;;;;;;;;;;;;;;
2021/12/16 18:58:00;;;;;;;;;;;;;;;;;;;;;
2021/12/16 19:13:28;;;;;;;;;;;;;;;;;;;;;
2021/12/16 19:16:23;;;;;;;;;;;;;;;;;;;;;
2021/12/16 19:18:53;;;;;;;295.73;142.53;;;;;;;;;;4914802;28;20442;-80
2021/12/16 19:21:22;;;;;;;221.70;123.60;;;;;;;;;;4942417;28;20884;-80
2021/12/16 19:23:52;;;;;;;248.83;133.57;;;;;;;;;;4995564;28;20805;-79
2021/12/16 19:26:22;;;;;;;241.30;130.53;;;;;;;;;;4963591;28;21027;-80
2021/12/16 19:28:51;;;;;;;240.87;132.30;;;;;;;;;;4977823;28;20453;-80
2021/12/16 19:31:24;;;;;;;222.13;123.53;;;;;;;;;;4978715;28;20519;-80
2021/12/16 19:33:54;;;;;;;207.53;121.37;;;;;;;;;;4979369;28;20434;-80
2021/12/16 19:36:22;;;;;;;287.17;143.73;;;;;;;;;;4963974;28;20420;-82
2021/12/16 19:38:49;;;;;;;278.17;141.63;;;;;;;;;;4977873;28;20746;-81
2021/12/16 19:41:17;;;;;;;303.13;150.20;;;;;;;;;;4958320;28;20421;-80
2021/12/16 19:43:44;;;;;;;286.40;147.07;;;;;;;;;;4979971;28;20508;-81
2021/12/16 19:46:11;;;;;;;204.37;118.93;;;;;;;;;;4983815;28;20459;-81
2021/12/16 19:48:37;;;;;;;220.83;121.77;;;;;;;;;;4982657;28;20431;-81
2021/12/16 19:51:06;;;;;;;273.10;138.57;;;;;;;;;;4981870;28;20922;-80
2021/12/16 19:53:33;;;;;;;330.63;147.93;;;;;;;;;;4977735;28;21568;-81
2021/12/16 19:56:00;;;;;;;320.97;147.20;;;;;;;;;;4985079;28;20427;-81
2021/12/16 19:58:27;;;;;;;321.13;150.40;;;;;;;;;;4985248;28;20424;-81
2021/12/16 20:00:56;;;;;;;215.73;122.70;;;;;;;;;;4981036;28;21146;-80
2021/12/16 20:03:25;;;;;;;335.83;152.77;;;;;;;;;;4981628;28;20584;-81
2021/12/16 20:05:53;;;;;;;318.53;149.47;;;;;;;;;;4968211;28;20424;-81
2021/12/16 20:14:42;;;;;;;277.00;145.30;;;;;;;;;;4962561;28;20428;-83
2021/12/16 20:17:37;;;;;;;323.37;152.63;;;;;;;;;;4949457;28;20660;-84
2021/12/16 20:24:04;;;;;;;;;;;;;;;;;;;;;
2021/12/16 20:26:42;;;;;;;297.70;150.17;;;;;;;;;;4908601;28;20462;-84
2021/12/16 20:32:47;;;;;;;399.27;166.60;;;;;;;;;;4945011;28;21057;-84
2021/12/16 20:51:38;;;;;;;;;;;;;;;;;;;;;
2021/12/16 20:54:28;;;;;;;341.83;137.27;;;;;;;;;;4861544;29;20436;-83
2021/12/16 21:00:18;;;;;;;166.53;104.97;;;;;;;;;;4928660;28;21213;-83
2021/12/16 21:02:53;;;;;;;242.87;127.97;;;;;;;;;;4978597;28;20428;-83
2021/12/16 21:05:36;;;;;;;306.80;133.67;;;;;;;;;;4985729;28;20483;-83
2021/12/16 21:08:03;;;;;;;210.00;117.37;;;;;;;;;;4986827;28;20806;-83
2021/12/16 21:11:18;;;;;;;;;;;;;;;;;;;;;
2021/12/16 21:14:16;;;;;;;251.70;130.90;;;;;;;;;;4987379;28;20421;-83
2021/12/16 21:20:05;;;;;;;282.17;133.13;;;;;;;;;;4983266;28;21072;-81
2021/12/16 21:22:29;;;;;;;255.93;130.80;;;;;;;;;;4989656;28;20430;-82
2021/12/16 21:25:02;;;;;;;328.80;146.67;;;;;;;;;;4975205;28;20425;-82
2021/12/16 21:27:33;;;;;;;529.20;170.30;;;;;;;;;;4984016;28;20482;-82